createdAt,value
2019-06-08T00:00:22.507Z,985.19
2019-06-08T00:01:22.647Z,985.19
2019-06-08T00:02:21.146Z,985.20
2019-06-08T00:03:21.137Z,985.09
2019-06-08T00:04:21.122Z,985.07
2019-06-08T00:05:21.163Z,985.09
2019-06-08T00:06:21.100Z,985.12
2019-06-08T00:07:21.089Z,985.17
2019-06-08T00:08:21.076Z,985.10
2019-06-08T00:09:22.563Z,985.18
2019-06-08T00:10:23.644Z,985.15
2019-06-08T00:11:21.216Z,985.15
2019-06-08T00:12:21.294Z,985.13
2019-06-08T00:13:21.323Z,985.18
2019-06-08T00:14:21.497Z,985.22
2019-06-08T00:15:22.254Z,985.22
2019-06-08T00:16:21.454Z,985.24
2019-06-08T00:17:35.814Z,985.24
2019-06-08T00:18:21.965Z,985.26
2019-06-08T00:19:21.538Z,985.25
2019-06-08T00:20:21.907Z,985.26
2019-06-08T00:21:21.766Z,985.24
2019-06-08T00:22:21.927Z,985.30
2019-06-08T00:23:21.970Z,985.34
2019-06-08T00:24:21.917Z,985.35
2019-06-08T00:25:22.454Z,985.39
2019-06-08T00:26:22.070Z,985.36
2019-06-08T00:27:22.689Z,985.31
2019-06-08T00:28:20.859Z,985.40
2019-06-08T00:29:20.847Z,985.42
2019-06-08T00:30:20.884Z,985.41
2019-06-08T00:31:21.676Z,985.35
2019-06-08T00:32:20.818Z,985.30
2019-06-08T00:33:20.855Z,985.38
2019-06-08T00:34:20.804Z,985.43
2019-06-08T00:35:20.870Z,985.45
2019-06-08T00:36:20.934Z,985.42
2019-06-08T00:37:20.859Z,985.49
2019-06-08T00:38:21.049Z,985.48
2019-06-08T00:39:20.948Z,985.51
2019-06-08T00:40:21.078Z,985.49
2019-06-08T00:41:22.037Z,985.55
2019-06-08T00:42:21.266Z,985.59
2019-06-08T00:43:21.396Z,985.63
2019-06-08T00:44:21.301Z,985.58
2019-06-08T00:45:21.696Z,985.55
2019-06-08T00:46:21.391Z,985.62
2019-06-08T00:47:20.661Z,985.64
2019-06-08T00:48:21.122Z,985.52
2019-06-08T00:49:20.630Z,985.63
2019-06-08T00:50:21.070Z,985.55
2019-06-08T00:51:20.989Z,985.51
2019-06-08T00:52:21.033Z,985.55
2019-06-08T00:53:21.284Z,985.60
2019-06-08T00:54:21.531Z,985.60
2019-06-08T00:55:21.778Z,985.61
2019-06-08T00:56:21.558Z,985.60
2019-06-08T00:57:21.730Z,985.66
2019-06-08T00:58:21.919Z,985.60
2019-06-08T00:59:20.510Z,985.62
2019-06-08T01:00:20.534Z,985.61
2019-06-08T01:01:22.562Z,985.70
2019-06-08T01:02:20.482Z,985.69
2019-06-08T01:03:21.661Z,985.70
2019-06-08T01:04:20.675Z,985.73
2019-06-08T01:05:21.831Z,985.71
2019-06-08T01:06:20.958Z,985.73
2019-06-08T01:07:20.421Z,985.73
2019-06-08T01:08:22.076Z,985.84
2019-06-08T01:09:20.400Z,985.79
2019-06-08T01:10:21.290Z,985.67
2019-06-08T01:11:20.974Z,985.82
2019-06-08T01:12:20.558Z,985.77
2019-06-08T01:13:20.878Z,985.68
2019-06-08T01:14:20.862Z,985.78
2019-06-08T01:15:26.905Z,985.82
2019-06-08T01:16:21.361Z,985.74
2019-06-08T01:17:21.077Z,985.91
2019-06-08T01:18:22.211Z,985.84
2019-06-08T01:19:21.120Z,985.80
2019-06-08T01:20:21.680Z,985.82
2019-06-08T01:21:21.279Z,985.79
2019-06-08T01:22:21.491Z,985.84
2019-06-08T01:23:21.521Z,985.86
2019-06-08T01:24:21.553Z,985.87
2019-06-08T01:25:20.612Z,985.85
2019-06-08T01:26:20.212Z,985.87
2019-06-08T01:27:20.228Z,985.86
2019-06-08T01:28:20.196Z,985.81
2019-06-08T01:29:20.233Z,985.86
2019-06-08T01:30:20.171Z,985.95
2019-06-08T01:31:20.432Z,985.85
2019-06-08T01:32:20.330Z,985.96
2019-06-08T01:33:20.479Z,985.88
2019-06-08T01:34:20.620Z,985.95
2019-06-08T01:35:20.849Z,985.89
2019-06-08T01:36:20.690Z,985.92
2019-06-08T01:37:21.008Z,985.92
2019-06-08T01:38:21.034Z,985.93
2019-06-08T01:39:21.107Z,985.96
2019-06-08T01:40:21.299Z,985.97
2019-06-08T01:41:21.290Z,985.95
2019-06-08T01:42:21.365Z,985.96
2019-06-08T01:43:21.649Z,985.97
2019-06-08T01:44:20.013Z,986.02
2019-06-08T01:45:19.998Z,985.99
2019-06-08T01:46:19.988Z,986.05
2019-06-08T01:47:19.980Z,986.07
2019-06-08T01:48:20.726Z,986.07
2019-06-08T01:49:19.958Z,986.05
2019-06-08T01:50:19.944Z,986.04
2019-06-08T01:51:19.934Z,986.01
2019-06-08T01:52:19.923Z,986.03
2019-06-08T01:53:19.936Z,986.05
2019-06-08T01:54:19.898Z,986.09
2019-06-08T01:55:19.892Z,986.03
2019-06-08T01:56:20.016Z,986.06
2019-06-08T01:57:19.871Z,986.13
2019-06-08T01:58:19.881Z,986.08
2019-06-08T01:59:19.843Z,986.06
2019-06-08T02:00:29.749Z,986.13
2019-06-08T02:01:20.818Z,986.11
2019-06-08T02:02:19.812Z,986.12
2019-06-08T02:03:19.828Z,986.16
2019-06-08T02:04:19.787Z,986.15
2019-06-08T02:05:19.779Z,986.11
2019-06-08T02:06:19.768Z,986.18
2019-06-08T02:07:19.755Z,986.17
2019-06-08T02:08:19.771Z,986.20
2019-06-08T02:09:19.735Z,986.19
2019-06-08T02:10:19.720Z,986.21
2019-06-08T02:11:19.714Z,986.25
2019-06-08T02:12:19.699Z,986.21
2019-06-08T02:13:19.717Z,986.20
2019-06-08T02:14:19.678Z,986.27
2019-06-08T02:15:19.671Z,986.30
2019-06-08T02:16:19.657Z,986.27
2019-06-08T02:17:19.646Z,986.32
2019-06-08T02:18:35.564Z,986.38
2019-06-08T02:19:20.625Z,986.34
2019-06-08T02:20:19.612Z,986.40
2019-06-08T02:21:19.601Z,986.33
2019-06-08T02:22:19.591Z,986.40
2019-06-08T02:23:19.580Z,986.39
2019-06-08T02:24:19.610Z,986.42
2019-06-08T02:25:19.563Z,986.44
2019-06-08T02:26:19.566Z,986.41
2019-06-08T02:27:19.550Z,986.52
2019-06-08T02:28:19.546Z,986.49
2019-06-08T02:29:19.538Z,986.39
2019-06-08T02:30:19.507Z,986.43
2019-06-08T02:31:19.504Z,986.49
2019-06-08T02:32:19.500Z,986.19
2019-06-08T02:33:19.470Z,986.52
2019-06-08T02:34:19.485Z,986.54
2019-06-08T02:35:19.447Z,986.56
2019-06-08T02:36:19.503Z,986.62
2019-06-08T02:37:19.451Z,986.47
2019-06-08T02:38:19.418Z,986.54
2019-06-08T02:39:19.487Z,986.62
2019-06-08T02:40:19.431Z,986.66
2019-06-08T02:41:19.399Z,986.68
2019-06-08T02:42:19.420Z,986.70
2019-06-08T02:43:19.359Z,986.73
2019-06-08T02:44:19.385Z,986.71
2019-06-08T02:45:19.350Z,986.86
2019-06-08T02:46:19.338Z,986.89
2019-06-08T02:47:19.317Z,986.95
2019-06-08T02:48:19.306Z,986.82
2019-06-08T02:49:19.361Z,986.96
2019-06-08T02:50:19.284Z,987.06
2019-06-08T02:51:19.276Z,986.92
2019-06-08T02:52:19.344Z,986.93
2019-06-08T02:53:19.247Z,986.97
2019-06-08T02:54:19.237Z,986.99
2019-06-08T02:55:19.304Z,987.10
2019-06-08T02:56:19.228Z,987.08
2019-06-08T02:57:19.225Z,987.12
2019-06-08T02:58:19.194Z,987.08
2019-06-08T02:59:19.184Z,987.09
2019-06-08T03:00:19.204Z,987.07
2019-06-08T03:01:19.162Z,987.03
2019-06-08T03:02:19.149Z,987.14
2019-06-08T03:03:19.136Z,987.11
2019-06-08T03:04:19.157Z,987.01
2019-06-08T03:05:19.136Z,987.20
2019-06-08T03:06:19.111Z,987.07
2019-06-08T03:07:19.095Z,987.14
2019-06-08T03:08:19.080Z,987.12
2019-06-08T03:09:19.071Z,987.13
2019-06-08T03:10:19.083Z,987.13
2019-06-08T03:11:19.049Z,987.17
2019-06-08T03:12:19.036Z,987.12
2019-06-08T03:13:19.030Z,987.09
2019-06-08T03:14:19.015Z,987.19
2019-06-08T03:15:19.026Z,987.11
2019-06-08T03:16:18.993Z,987.03
2019-06-08T03:17:18.995Z,987.20
2019-06-08T03:18:18.971Z,987.15
2019-06-08T03:19:22.353Z,987.15
2019-06-08T03:20:18.972Z,987.14
2019-06-08T03:21:18.944Z,987.17
2019-06-08T03:22:18.937Z,987.27
2019-06-08T03:23:18.920Z,987.10
2019-06-08T03:24:18.910Z,987.19
2019-06-08T03:25:18.929Z,987.13
2019-06-08T03:26:19.096Z,987.14
2019-06-08T03:27:18.876Z,987.35
2019-06-08T03:28:18.870Z,987.22
2019-06-08T03:29:18.850Z,987.24
2019-06-08T03:30:19.938Z,987.26
2019-06-08T03:31:18.861Z,987.29
2019-06-08T03:32:18.820Z,987.27
2019-06-08T03:33:18.806Z,987.29
2019-06-08T03:34:18.795Z,987.23
2019-06-08T03:35:18.784Z,987.29
2019-06-08T03:36:18.831Z,987.22
2019-06-08T03:37:18.767Z,987.21
2019-06-08T03:38:18.762Z,987.24
2019-06-08T03:39:18.739Z,987.34
2019-06-08T03:40:18.731Z,987.31
2019-06-08T03:41:18.739Z,987.34
2019-06-08T03:42:18.715Z,987.32
2019-06-08T03:43:18.701Z,987.38
2019-06-08T03:44:18.684Z,987.45
2019-06-08T03:45:18.673Z,987.40
2019-06-08T03:46:18.686Z,987.30
2019-06-08T03:47:18.649Z,987.34
2019-06-08T03:48:18.640Z,987.30
2019-06-08T03:49:18.628Z,987.39
2019-06-08T03:50:18.623Z,987.34
2019-06-08T03:51:18.634Z,987.51
2019-06-08T03:52:18.596Z,987.29
2019-06-08T03:53:18.596Z,987.38
2019-06-08T03:54:18.579Z,987.44
2019-06-08T03:55:18.565Z,987.44
2019-06-08T03:56:18.581Z,987.39
2019-06-08T03:57:18.540Z,987.51
2019-06-08T03:58:18.533Z,987.50
2019-06-08T03:59:18.522Z,987.51
2019-06-08T04:00:18.509Z,987.62
2019-06-08T04:01:18.519Z,987.49
2019-06-08T04:02:18.486Z,987.66
2019-06-08T04:03:18.473Z,987.54
2019-06-08T04:04:18.463Z,987.56
2019-06-08T04:05:18.456Z,987.65
2019-06-08T04:06:18.561Z,987.76
2019-06-08T04:07:18.448Z,987.69
2019-06-08T04:08:18.417Z,987.72
2019-06-08T04:09:18.429Z,987.68
2019-06-08T04:10:18.398Z,987.72
2019-06-08T04:11:18.389Z,987.73
2019-06-08T04:12:18.402Z,987.65
2019-06-08T04:13:18.365Z,987.64
2019-06-08T04:14:18.351Z,987.68
2019-06-08T04:15:18.339Z,987.65
2019-06-08T04:16:18.334Z,987.70
2019-06-08T04:17:18.344Z,987.72
2019-06-08T04:18:18.318Z,987.71
2019-06-08T04:19:18.298Z,987.72
2019-06-08T04:20:18.287Z,987.73
2019-06-08T04:21:18.282Z,987.75
2019-06-08T04:22:18.289Z,987.84
2019-06-08T04:23:18.254Z,987.75
2019-06-08T04:24:18.244Z,987.78
2019-06-08T04:25:18.232Z,987.78
2019-06-08T04:26:18.230Z,987.77
2019-06-08T04:27:18.237Z,987.78
2019-06-08T04:28:18.208Z,987.84
2019-06-08T04:29:18.186Z,987.94
2019-06-08T04:30:18.178Z,987.88
2019-06-08T04:31:18.170Z,987.90
2019-06-08T04:32:18.185Z,987.89
2019-06-08T04:33:18.154Z,987.92
2019-06-08T04:34:18.137Z,987.89
2019-06-08T04:35:18.119Z,988.08
2019-06-08T04:36:18.122Z,987.95
2019-06-08T04:37:18.122Z,988.00
2019-06-08T04:38:18.093Z,987.99
2019-06-08T04:39:18.079Z,988.02
2019-06-08T04:40:18.069Z,988.02
2019-06-08T04:41:18.056Z,988.06
2019-06-08T04:42:18.076Z,988.00
2019-06-08T04:43:18.032Z,988.10
2019-06-08T04:44:18.022Z,988.00
2019-06-08T04:45:18.010Z,988.01
2019-06-08T04:46:17.997Z,988.07
2019-06-08T04:47:18.042Z,987.93
2019-06-08T04:48:17.980Z,988.03
2019-06-08T04:49:17.966Z,987.98
2019-06-08T04:50:23.172Z,987.98
2019-06-08T04:51:18.942Z,987.89
2019-06-08T04:52:17.934Z,988.06
2019-06-08T04:53:17.952Z,988.07
2019-06-08T04:54:17.927Z,988.05
2019-06-08T04:55:17.901Z,988.15
2019-06-08T04:56:17.895Z,988.17
2019-06-08T04:57:17.878Z,988.20
2019-06-08T04:58:17.891Z,988.20
2019-06-08T04:59:17.856Z,988.25
2019-06-08T05:00:17.845Z,988.02
2019-06-08T05:01:17.833Z,988.20
2019-06-08T05:02:17.859Z,988.26
2019-06-08T05:03:17.839Z,988.13
2019-06-08T05:04:17.831Z,988.33
2019-06-08T05:05:17.815Z,988.35
2019-06-08T05:06:17.799Z,988.42
2019-06-08T05:07:17.777Z,988.39
2019-06-08T05:08:17.782Z,988.36
2019-06-08T05:09:17.753Z,988.38
2019-06-08T05:10:17.736Z,988.33
2019-06-08T05:11:17.720Z,988.39
2019-06-08T05:12:17.713Z,988.38
2019-06-08T05:13:17.725Z,988.46
2019-06-08T05:14:17.707Z,988.43
2019-06-08T05:15:17.705Z,988.40
2019-06-08T05:16:17.670Z,988.36
2019-06-08T05:17:17.654Z,988.42
2019-06-08T05:18:17.666Z,988.46
2019-06-08T05:19:17.633Z,988.46
2019-06-08T05:20:17.629Z,988.40
2019-06-08T05:21:17.611Z,988.50
2019-06-08T05:22:17.599Z,988.49
2019-06-08T05:23:17.614Z,988.55
2019-06-08T05:24:17.582Z,988.45
2019-06-08T05:25:17.564Z,988.56
2019-06-08T05:26:17.556Z,988.49
2019-06-08T05:27:17.541Z,988.58
2019-06-08T05:28:17.554Z,988.54
2019-06-08T05:29:17.520Z,988.54
2019-06-08T05:30:17.510Z,988.50
2019-06-08T05:31:17.499Z,988.54
2019-06-08T05:32:17.486Z,988.59
2019-06-08T05:33:17.506Z,988.61
2019-06-08T05:34:17.466Z,988.56
2019-06-08T05:35:17.454Z,988.70
2019-06-08T05:36:17.455Z,988.57
2019-06-08T05:37:17.430Z,988.65
2019-06-08T05:38:17.443Z,988.68
2019-06-08T05:39:17.408Z,988.68
2019-06-08T05:40:17.408Z,988.65
2019-06-08T05:41:17.439Z,988.66
2019-06-08T05:42:17.385Z,988.15
2019-06-08T05:43:17.403Z,988.75
2019-06-08T05:44:17.361Z,988.63
2019-06-08T05:45:17.344Z,988.65
2019-06-08T05:46:17.339Z,988.64
2019-06-08T05:47:17.321Z,988.73
2019-06-08T05:48:17.313Z,988.77
2019-06-08T05:49:17.331Z,988.78
2019-06-08T05:50:17.290Z,988.76
2019-06-08T05:51:17.283Z,988.84
2019-06-08T05:52:17.268Z,988.84
2019-06-08T05:53:17.262Z,988.83
2019-06-08T05:54:17.280Z,988.82
2019-06-08T05:55:17.236Z,988.70
2019-06-08T05:56:17.223Z,988.85
2019-06-08T05:57:17.212Z,988.90
2019-06-08T05:58:17.205Z,988.99
2019-06-08T05:59:17.211Z,989.04
2019-06-08T06:00:17.194Z,989.14
2019-06-08T06:01:17.172Z,988.76
2019-06-08T06:02:17.158Z,988.98
2019-06-08T06:03:17.174Z,989.03
2019-06-08T06:04:17.159Z,988.96
2019-06-08T06:05:17.134Z,988.93
2019-06-08T06:06:17.122Z,988.98
2019-06-08T06:07:17.100Z,989.02
2019-06-08T06:08:19.210Z,989.17
2019-06-08T06:09:17.104Z,988.98
2019-06-08T06:10:17.070Z,989.09
2019-06-08T06:11:17.065Z,989.05
2019-06-08T06:12:17.055Z,989.04
2019-06-08T06:13:17.036Z,989.17
2019-06-08T06:14:17.050Z,989.17
2019-06-08T06:15:17.014Z,989.01
2019-06-08T06:16:17.004Z,989.10
2019-06-08T06:17:16.994Z,989.13
2019-06-08T06:18:16.984Z,989.13
2019-06-08T06:19:16.995Z,989.10
2019-06-08T06:20:16.958Z,989.06
2019-06-08T06:21:16.948Z,989.23
2019-06-08T06:22:16.937Z,989.13
2019-06-08T06:23:16.926Z,989.06
2019-06-08T06:24:16.949Z,988.98
2019-06-08T06:25:16.947Z,989.09
2019-06-08T06:26:16.897Z,988.97
2019-06-08T06:27:16.882Z,989.06
2019-06-08T06:28:16.871Z,989.10
2019-06-08T06:29:16.882Z,989.08
2019-06-08T06:30:16.850Z,989.08
2019-06-08T06:31:16.840Z,989.08
2019-06-08T06:32:16.828Z,989.09
2019-06-08T06:33:16.820Z,989.05
2019-06-08T06:34:16.827Z,989.08
2019-06-08T06:35:16.801Z,989.12
2019-06-08T06:36:16.782Z,989.04
2019-06-08T06:37:16.774Z,989.02
2019-06-08T06:38:16.781Z,989.10
2019-06-08T06:39:16.773Z,989.07
2019-06-08T06:40:16.738Z,989.05
2019-06-08T06:41:16.752Z,989.25
2019-06-08T06:42:16.719Z,989.11
2019-06-08T06:43:16.704Z,989.12
2019-06-08T06:44:16.716Z,989.12
2019-06-08T06:45:16.682Z,989.22
2019-06-08T06:46:16.671Z,989.28
2019-06-08T06:47:16.661Z,989.17
2019-06-08T06:48:16.655Z,989.24
2019-06-08T06:49:16.675Z,989.27
2019-06-08T06:50:16.630Z,989.31
2019-06-08T06:51:25.657Z,989.37
2019-06-08T06:52:17.606Z,989.32
2019-06-08T06:53:16.599Z,989.47
2019-06-08T06:54:16.583Z,989.41
2019-06-08T06:55:16.597Z,989.37
2019-06-08T06:56:16.563Z,989.49
2019-06-08T06:57:16.549Z,989.28
2019-06-08T06:58:16.541Z,989.40
2019-06-08T06:59:16.531Z,989.44
2019-06-08T07:00:16.544Z,989.50
2019-06-08T07:01:16.505Z,989.60
2019-06-08T07:02:16.495Z,989.69
2019-06-08T07:03:16.483Z,989.50
2019-06-08T07:04:16.475Z,989.58
2019-06-08T07:05:16.485Z,989.67
2019-06-08T07:06:16.452Z,989.56
2019-06-08T07:07:16.439Z,989.50
2019-06-08T07:08:16.428Z,989.64
2019-06-08T07:09:16.418Z,989.66
2019-06-08T07:10:16.434Z,989.58
2019-06-08T07:11:16.402Z,989.68
2019-06-08T07:12:16.464Z,989.59
2019-06-08T07:13:16.384Z,989.64
2019-06-08T07:14:16.375Z,989.57
2019-06-08T07:15:16.376Z,989.63
2019-06-08T07:16:18.944Z,989.58
2019-06-08T07:17:16.329Z,989.53
2019-06-08T07:18:16.319Z,989.61
2019-06-08T07:19:16.307Z,989.66
2019-06-08T07:20:16.321Z,989.83
2019-06-08T07:21:16.287Z,989.56
2019-06-08T07:22:16.275Z,989.61
2019-06-08T07:23:16.267Z,989.70
2019-06-08T07:24:16.252Z,989.70
2019-06-08T07:25:16.272Z,989.70
2019-06-08T07:26:16.232Z,989.66
2019-06-08T07:27:16.219Z,989.71
2019-06-08T07:28:16.213Z,989.81
2019-06-08T07:29:16.198Z,989.79
2019-06-08T07:30:16.206Z,989.74
2019-06-08T07:31:16.200Z,989.74
2019-06-08T07:32:16.164Z,989.68
2019-06-08T07:33:16.154Z,989.74
2019-06-08T07:34:16.151Z,989.70
2019-06-08T07:35:16.140Z,989.84
2019-06-08T07:36:16.149Z,989.78
2019-06-08T07:37:16.112Z,989.85
2019-06-08T07:38:16.100Z,989.83
2019-06-08T07:39:16.089Z,989.95
2019-06-08T07:40:16.080Z,989.70
2019-06-08T07:41:16.089Z,989.89
2019-06-08T07:42:16.056Z,989.71
2019-06-08T07:43:16.044Z,989.87
2019-06-08T07:44:16.033Z,989.82
2019-06-08T07:45:16.022Z,989.87
2019-06-08T07:46:16.034Z,989.82
2019-06-08T07:47:16.001Z,989.90
2019-06-08T07:48:15.990Z,989.87
2019-06-08T07:49:15.978Z,989.84
2019-06-08T07:50:15.969Z,989.92
2019-06-08T07:51:15.981Z,989.90
2019-06-08T07:52:15.948Z,989.89
2019-06-08T07:53:15.935Z,989.91
2019-06-08T07:54:15.925Z,989.92
2019-06-08T07:55:15.917Z,989.98
2019-06-08T07:56:15.929Z,989.91
2019-06-08T07:57:15.891Z,989.86
2019-06-08T07:58:15.880Z,989.94
2019-06-08T07:59:15.867Z,989.89
2019-06-08T08:00:15.860Z,990.02
2019-06-08T08:01:15.869Z,989.91
2019-06-08T08:02:15.840Z,989.98
2019-06-08T08:03:15.830Z,990.01
2019-06-08T08:04:15.813Z,989.92
2019-06-08T08:05:15.802Z,990.16
2019-06-08T08:06:15.821Z,990.09
2019-06-08T08:07:15.780Z,990.04
2019-06-08T08:08:15.768Z,989.99
2019-06-08T08:09:15.760Z,989.87
2019-06-08T08:10:15.752Z,990.08
2019-06-08T08:11:15.757Z,989.94
2019-06-08T08:12:15.725Z,990.09
2019-06-08T08:13:15.717Z,990.03
2019-06-08T08:14:15.708Z,990.10
2019-06-08T08:15:15.702Z,990.15
2019-06-08T08:16:15.715Z,990.13
2019-06-08T08:17:15.668Z,990.10
2019-06-08T08:18:15.657Z,990.06
2019-06-08T08:19:15.645Z,990.14
2019-06-08T08:20:15.635Z,990.13
2019-06-08T08:21:23.095Z,990.20
2019-06-08T08:22:25.032Z,990.14
2019-06-08T08:23:17.372Z,990.13
2019-06-08T08:24:17.369Z,990.24
2019-06-08T08:25:18.056Z,990.13
2019-06-08T08:26:15.573Z,990.22
2019-06-08T08:27:17.921Z,990.26
2019-06-08T08:28:17.559Z,990.24
2019-06-08T08:29:17.702Z,990.22
2019-06-08T08:30:17.310Z,990.22
2019-06-08T08:31:15.525Z,990.18
2019-06-08T08:32:15.525Z,990.28
2019-06-08T08:33:18.180Z,990.13
2019-06-08T08:34:15.492Z,990.32
2019-06-08T08:35:15.479Z,990.29
2019-06-08T08:36:15.457Z,990.30
2019-06-08T08:37:17.627Z,990.18
2019-06-08T08:38:17.600Z,990.22
2019-06-08T08:39:17.568Z,990.28
2019-06-08T08:40:17.498Z,990.19
2019-06-08T08:41:17.951Z,990.28
2019-06-08T08:42:17.839Z,990.23
2019-06-08T08:43:17.671Z,990.24
2019-06-08T08:44:17.448Z,990.24
2019-06-08T08:45:15.358Z,990.30
2019-06-08T08:46:17.213Z,990.13
2019-06-08T08:47:15.359Z,990.21
2019-06-08T08:48:25.350Z,990.34
2019-06-08T08:49:18.235Z,990.37
2019-06-08T08:50:15.302Z,990.18
2019-06-08T08:51:17.998Z,990.53
2019-06-08T08:52:17.544Z,990.30
2019-06-08T08:53:15.267Z,990.41
2019-06-08T08:54:15.258Z,990.34
2019-06-08T08:55:20.287Z,990.46
2019-06-08T08:56:18.097Z,990.33
2019-06-08T08:57:15.247Z,990.41
2019-06-08T08:58:15.212Z,990.41
2019-06-08T08:59:17.609Z,990.37
2019-06-08T09:00:15.192Z,990.48
2019-06-08T09:01:20.209Z,990.46
2019-06-08T09:02:20.731Z,990.36
2019-06-08T09:03:27.942Z,990.44
2019-06-08T09:04:18.383Z,990.46
2019-06-08T09:05:15.136Z,990.47
2019-06-08T09:06:15.124Z,990.44
2019-06-08T09:07:15.115Z,990.46
2019-06-08T09:08:15.137Z,990.45
2019-06-08T09:09:15.091Z,990.51
2019-06-08T09:10:15.094Z,990.53
2019-06-08T09:11:17.449Z,990.46
2019-06-08T09:12:18.058Z,990.47
2019-06-08T09:13:15.073Z,990.52
2019-06-08T09:14:16.071Z,990.45
2019-06-08T09:15:15.027Z,990.65
2019-06-08T09:16:17.536Z,990.55
2019-06-08T09:17:15.003Z,990.51
2019-06-08T09:18:15.024Z,990.55
2019-06-08T09:19:14.985Z,990.64
2019-06-08T09:20:16.524Z,990.61
2019-06-08T09:21:14.959Z,990.76
2019-06-08T09:22:14.952Z,990.58
2019-06-08T09:23:16.492Z,990.72
2019-06-08T09:24:18.455Z,990.78
2019-06-08T09:25:14.912Z,990.75
2019-06-08T09:26:17.468Z,990.55
2019-06-08T09:27:14.914Z,990.81
2019-06-08T09:28:14.918Z,990.89
2019-06-08T09:29:14.878Z,990.68
2019-06-08T09:30:14.885Z,991.03
2019-06-08T09:31:14.846Z,991.03
2019-06-08T09:32:14.836Z,990.95
2019-06-08T09:33:14.858Z,991.03
2019-06-08T09:34:15.444Z,991.04
2019-06-08T09:35:14.812Z,990.99
2019-06-08T09:36:17.546Z,991.15
2019-06-08T09:37:14.788Z,991.07
2019-06-08T09:38:14.795Z,991.16
2019-06-08T09:39:14.762Z,991.17
2019-06-08T09:40:14.747Z,991.22
2019-06-08T09:41:14.763Z,991.33
2019-06-08T09:42:14.725Z,991.25
2019-06-08T09:43:14.751Z,991.21
2019-06-08T09:44:14.795Z,991.26
2019-06-08T09:45:14.705Z,991.33
2019-06-08T09:46:14.712Z,991.33
2019-06-08T09:47:14.719Z,991.38
2019-06-08T09:48:14.686Z,991.31
2019-06-08T09:49:14.665Z,991.34
2019-06-08T09:50:14.635Z,991.36
2019-06-08T09:51:14.626Z,991.37
2019-06-08T09:52:14.618Z,991.25
2019-06-08T09:53:24.329Z,991.33
2019-06-08T09:54:17.978Z,991.37
2019-06-08T09:55:14.596Z,991.42
2019-06-08T09:56:14.618Z,991.30
2019-06-08T09:57:14.560Z,991.33
2019-06-08T09:58:14.556Z,991.19
2019-06-08T09:59:15.525Z,991.24
2019-06-08T10:00:18.579Z,991.26
2019-06-08T10:01:15.523Z,991.32
2019-06-08T10:02:14.502Z,991.37
2019-06-08T10:03:14.494Z,991.28
2019-06-08T10:04:14.506Z,991.36
2019-06-08T10:05:14.479Z,991.27
2019-06-08T10:06:14.460Z,991.20
2019-06-08T10:07:14.460Z,991.17
2019-06-08T10:08:14.443Z,991.22
2019-06-08T10:09:14.449Z,991.34
2019-06-08T10:10:14.423Z,991.27
2019-06-08T10:11:14.404Z,991.34
2019-06-08T10:12:14.464Z,991.31
2019-06-08T10:13:14.388Z,991.34
2019-06-08T10:14:14.398Z,991.34
2019-06-08T10:15:14.377Z,991.29
2019-06-08T10:16:14.394Z,991.25
2019-06-08T10:17:14.340Z,991.29
2019-06-08T10:18:14.350Z,991.27
2019-06-08T10:19:14.339Z,991.31
2019-06-08T10:20:14.313Z,991.33
2019-06-08T10:21:14.306Z,991.22
2019-06-08T10:22:14.288Z,991.31
2019-06-08T10:23:30.338Z,991.20
2019-06-08T10:24:15.285Z,991.32
2019-06-08T10:25:14.252Z,991.24
2019-06-08T10:26:14.249Z,991.35
2019-06-08T10:27:14.252Z,991.33
2019-06-08T10:28:18.459Z,991.42
2019-06-08T10:29:15.230Z,991.31
2019-06-08T10:30:14.212Z,991.43
2019-06-08T10:31:14.194Z,991.41
2019-06-08T10:32:14.180Z,991.44
2019-06-08T10:33:14.167Z,991.38
2019-06-08T10:34:14.189Z,991.36
2019-06-08T10:35:14.172Z,991.42
2019-06-08T10:36:14.133Z,991.42
2019-06-08T10:37:14.118Z,991.37
2019-06-08T10:38:14.107Z,991.44
2019-06-08T10:39:14.143Z,991.55
2019-06-08T10:40:14.137Z,991.43
2019-06-08T10:41:19.198Z,991.50
2019-06-08T10:42:15.074Z,991.48
2019-06-08T10:43:14.053Z,991.50
2019-06-08T10:44:14.600Z,991.58
2019-06-08T10:45:14.997Z,991.50
2019-06-08T10:46:17.179Z,991.46
2019-06-08T10:47:15.017Z,991.40
2019-06-08T10:48:14.016Z,991.55
2019-06-08T10:49:15.087Z,991.39
2019-06-08T10:50:15.628Z,991.46
2019-06-08T10:51:13.981Z,991.58
2019-06-08T10:52:14.000Z,991.65
2019-06-08T10:53:16.554Z,991.42
2019-06-08T10:54:13.940Z,991.68
2019-06-08T10:55:13.946Z,991.64
2019-06-08T10:56:13.956Z,991.69
2019-06-08T10:57:13.899Z,991.72
2019-06-08T10:58:13.895Z,991.75
2019-06-08T10:59:14.043Z,991.61
2019-06-08T11:00:22.573Z,991.76
2019-06-08T11:01:14.861Z,991.72
2019-06-08T11:02:14.704Z,991.64
2019-06-08T11:03:13.835Z,991.53
2019-06-08T11:04:13.825Z,991.68
2019-06-08T11:05:14.229Z,991.67
2019-06-08T11:06:13.945Z,991.71
2019-06-08T11:07:16.285Z,991.74
2019-06-08T11:08:14.742Z,991.53
2019-06-08T11:09:15.334Z,991.93
2019-06-08T11:10:13.783Z,991.75
2019-06-08T11:11:13.750Z,991.76
2019-06-08T11:12:15.209Z,991.79
2019-06-08T11:13:15.119Z,991.77
2019-06-08T11:14:13.866Z,991.78
2019-06-08T11:15:13.735Z,991.88
2019-06-08T11:16:14.066Z,991.82
2019-06-08T11:17:13.685Z,991.86
2019-06-08T11:18:13.723Z,991.89
2019-06-08T11:19:14.186Z,991.89
2019-06-08T11:20:13.873Z,991.85
2019-06-08T11:21:13.643Z,991.86
2019-06-08T11:22:15.061Z,991.92
2019-06-08T11:23:13.619Z,991.86
2019-06-08T11:24:23.610Z,991.88
2019-06-08T11:25:16.792Z,991.86
2019-06-08T11:26:20.888Z,991.74
2019-06-08T11:27:14.580Z,991.74
2019-06-08T11:28:15.083Z,991.95
2019-06-08T11:29:14.040Z,991.93
2019-06-08T11:30:20.447Z,991.96
2019-06-08T11:31:15.933Z,992.02
2019-06-08T11:32:13.535Z,992.16
2019-06-08T11:33:13.511Z,991.98
2019-06-08T11:34:13.500Z,992.05
2019-06-08T11:35:13.491Z,992.01
2019-06-08T11:36:14.841Z,992.13
2019-06-08T11:37:13.840Z,992.09
2019-06-08T11:38:13.496Z,992.08
2019-06-08T11:39:13.444Z,992.05
2019-06-08T11:40:13.433Z,992.15
2019-06-08T11:41:13.771Z,992.18
2019-06-08T11:42:13.425Z,992.08
2019-06-08T11:43:13.403Z,992.20
2019-06-08T11:44:14.848Z,991.96
2019-06-08T11:45:13.461Z,992.00
2019-06-08T11:46:13.399Z,992.07
2019-06-08T11:47:13.587Z,992.13
2019-06-08T11:48:13.352Z,992.15
2019-06-08T11:49:15.009Z,992.18
2019-06-08T11:50:13.543Z,992.07
2019-06-08T11:51:13.377Z,992.06
2019-06-08T11:52:13.321Z,992.19
2019-06-08T11:53:14.855Z,992.25
2019-06-08T11:54:29.491Z,992.12
2019-06-08T11:55:14.272Z,992.14
2019-06-08T11:56:13.686Z,992.03
2019-06-08T11:57:13.288Z,992.10
2019-06-08T11:58:13.854Z,992.15
2019-06-08T11:59:14.452Z,992.24
2019-06-08T12:00:24.241Z,992.22
2019-06-08T12:01:15.402Z,992.18
2019-06-08T12:02:14.236Z,992.25
2019-06-08T12:03:13.186Z,992.31
2019-06-08T12:04:13.178Z,992.21
2019-06-08T12:05:14.290Z,992.28
2019-06-08T12:06:14.536Z,992.29
2019-06-08T12:07:14.023Z,992.43
2019-06-08T12:08:13.135Z,992.32
2019-06-08T12:09:14.097Z,992.30
2019-06-08T12:10:14.166Z,992.43
2019-06-08T12:11:18.150Z,992.35
2019-06-08T12:12:18.106Z,992.44
2019-06-08T12:13:14.361Z,992.41
2019-06-08T12:14:14.356Z,992.44
2019-06-08T12:15:13.762Z,992.44
2019-06-08T12:16:15.741Z,992.55
2019-06-08T12:17:18.847Z,992.54
2019-06-08T12:18:14.203Z,992.44
2019-06-08T12:19:16.300Z,992.40
2019-06-08T12:20:17.374Z,992.54
2019-06-08T12:21:14.616Z,992.49
2019-06-08T12:22:14.219Z,992.53
2019-06-08T12:23:14.132Z,992.51
2019-06-08T12:24:14.143Z,992.50
2019-06-08T12:25:14.170Z,992.53
2019-06-08T12:26:12.939Z,992.45
2019-06-08T12:27:24.641Z,992.53
2019-06-08T12:28:14.722Z,992.52